sensor_id;sensor_type;location;lat;lon;timestamp;P1;durP1;ratioP1;P2;durP2;ratioP2
30635;SDS011;17400;52.392;9.750;2023-06-22T00:00:12;13.32;;;11.35;;
30635;SDS011;17400;52.392;9.750;2023-06-22T00:02:40;16.70;;;12.60;;
30635;SDS011;17400;52.392;9.750;2023-06-22T00:05:09;13.63;;;12.07;;
30635;SDS011;17400;52.392;9.750;2023-06-22T00:07:37;12.65;;;11.07;;
30635;SDS011;17400;52.392;9.750;2023-06-22T00:10:05;15.35;;;11.70;;
30635;SDS011;17400;52.392;9.750;2023-06-22T00:12:34;12.73;;;10.93;;
30635;SDS011;17400;52.392;9.750;2023-06-22T00:15:02;12.40;;;10.90;;
30635;SDS011;17400;52.392;9.750;2023-06-22T00:17:30;15.80;;;11.93;;
30635;SDS011;17400;52.392;9.750;2023-06-22T00:19:57;14.48;;;12.20;;
30635;SDS011;17400;52.392;9.750;2023-06-22T00:22:28;15.38;;;12.65;;
30635;SDS011;17400;52.392;9.750;2023-06-22T00:24:56;13.20;;;10.65;;
30635;SDS011;17400;52.392;9.750;2023-06-22T00:27:25;13.68;;;11.65;;
30635;SDS011;17400;52.392;9.750;2023-06-22T00:29:53;14.55;;;12.02;;
30635;SDS011;17400;52.392;9.750;2023-06-22T00:32:21;14.23;;;11.07;;
30635;SDS011;17400;52.392;9.750;2023-06-22T00:34:49;14.05;;;12.00;;
30635;SDS011;17400;52.392;9.750;2023-06-22T00:37:17;14.98;;;12.43;;
30635;SDS011;17400;52.392;9.750;2023-06-22T00:39:47;13.93;;;12.27;;
30635;SDS011;17400;52.392;9.750;2023-06-22T00:42:15;16.25;;;12.68;;
30635;SDS011;17400;52.392;9.750;2023-06-22T00:44:42;12.50;;;11.20;;
30635;SDS011;17400;52.392;9.750;2023-06-22T00:47:11;14.70;;;12.52;;
30635;SDS011;17400;52.392;9.750;2023-06-22T00:49:40;19.65;;;12.68;;
30635;SDS011;17400;52.392;9.750;2023-06-22T00:52:09;17.63;;;12.40;;
30635;SDS011;17400;52.392;9.750;2023-06-22T00:54:40;14.77;;;10.52;;
30635;SDS011;17400;52.392;9.750;2023-06-22T00:57:13;14.18;;;12.48;;
30635;SDS011;17400;52.392;9.750;2023-06-22T00:59:42;13.30;;;11.90;;
30635;SDS011;17400;52.392;9.750;2023-06-22T01:02:11;15.75;;;11.48;;
30635;SDS011;17400;52.392;9.750;2023-06-22T01:04:39;17.42;;;12.88;;
30635;SDS011;17400;52.392;9.750;2023-06-22T01:07:10;16.88;;;13.10;;
30635;SDS011;17400;52.392;9.750;2023-06-22T01:09:55;15.77;;;13.20;;
30635;SDS011;17400;52.392;9.750;2023-06-22T01:12:29;13.15;;;11.23;;
30635;SDS011;17400;52.392;9.750;2023-06-22T01:15:02;14.70;;;11.65;;
30635;SDS011;17400;52.392;9.750;2023-06-22T01:17:36;12.52;;;11.23;;
30635;SDS011;17400;52.392;9.750;2023-06-22T01:20:08;14.57;;;12.13;;
30635;SDS011;17400;52.392;9.750;2023-06-22T01:22:42;14.45;;;11.93;;
30635;SDS011;17400;52.392;9.750;2023-06-22T01:25:25;14.13;;;11.80;;
30635;SDS011;17400;52.392;9.750;2023-06-22T01:27:58;12.48;;;10.98;;
30635;SDS011;17400;52.392;9.750;2023-06-22T01:30:34;14.13;;;11.90;;
30635;SDS011;17400;52.392;9.750;2023-06-22T01:33:03;13.50;;;11.52;;
30635;SDS011;17400;52.392;9.750;2023-06-22T01:35:33;14.25;;;11.90;;
30635;SDS011;17400;52.392;9.750;2023-06-22T01:38:02;13.05;;;11.23;;
30635;SDS011;17400;52.392;9.750;2023-06-22T01:40:30;13.57;;;11.85;;
30635;SDS011;17400;52.392;9.750;2023-06-22T01:43:00;13.00;;;11.35;;
30635;SDS011;17400;52.392;9.750;2023-06-22T01:45:29;15.75;;;12.02;;
30635;SDS011;17400;52.392;9.750;2023-06-22T01:47:59;13.38;;;11.45;;
30635;SDS011;17400;52.392;9.750;2023-06-22T01:50:28;16.08;;;12.55;;
30635;SDS011;17400;52.392;9.750;2023-06-22T01:52:56;12.88;;;11.02;;
30635;SDS011;17400;52.392;9.750;2023-06-22T01:55:28;12.75;;;10.57;;
30635;SDS011;17400;52.392;9.750;2023-06-22T01:57:56;13.38;;;10.98;;
30635;SDS011;17400;52.392;9.750;2023-06-22T02:00:25;17.92;;;11.88;;
30635;SDS011;17400;52.392;9.750;2023-06-22T02:02:56;12.85;;;10.40;;
30635;SDS011;17400;52.392;9.750;2023-06-22T02:05:31;14.63;;;12.00;;
30635;SDS011;17400;52.392;9.750;2023-06-22T02:08:05;12.95;;;10.80;;
30635;SDS011;17400;52.392;9.750;2023-06-22T02:10:36;12.50;;;10.88;;
30635;SDS011;17400;52.392;9.750;2023-06-22T02:13:07;12.00;;;10.45;;
30635;SDS011;17400;52.392;9.750;2023-06-22T02:15:37;12.15;;;9.98;;
30635;SDS011;17400;52.392;9.750;2023-06-22T02:18:07;12.85;;;10.30;;
30635;SDS011;17400;52.392;9.750;2023-06-22T02:20:36;11.55;;;10.25;;
30635;SDS011;17400;52.392;9.750;2023-06-22T02:23:04;15.05;;;10.27;;
30635;SDS011;17400;52.392;9.750;2023-06-22T02:25:33;12.32;;;9.40;;
30635;SDS011;17400;52.392;9.750;2023-06-22T02:28:02;11.30;;;10.10;;
30635;SDS011;17400;52.392;9.750;2023-06-22T02:30:30;11.30;;;10.10;;
30635;SDS011;17400;52.392;9.750;2023-06-22T02:32:58;11.45;;;10.25;;
30635;SDS011;17400;52.392;9.750;2023-06-22T02:35:27;12.45;;;10.27;;
30635;SDS011;17400;52.392;9.750;2023-06-22T02:37:58;10.63;;;9.52;;
30635;SDS011;17400;52.392;9.750;2023-06-22T02:40:26;12.73;;;10.23;;
30635;SDS011;17400;52.392;9.750;2023-06-22T02:42:54;12.82;;;10.65;;
30635;SDS011;17400;52.392;9.750;2023-06-22T02:45:24;11.80;;;9.52;;
30635;SDS011;17400;52.392;9.750;2023-06-22T02:47:52;11.50;;;10.30;;
30635;SDS011;17400;52.392;9.750;2023-06-22T02:50:20;11.90;;;10.30;;
30635;SDS011;17400;52.392;9.750;2023-06-22T02:52:49;12.70;;;10.75;;
30635;SDS011;17400;52.392;9.750;2023-06-22T02:55:17;15.80;;;10.48;;
30635;SDS011;17400;52.392;9.750;2023-06-22T02:57:45;12.75;;;11.38;;
30635;SDS011;17400;52.392;9.750;2023-06-22T03:00:14;16.08;;;11.98;;
30635;SDS011;17400;52.392;9.750;2023-06-22T03:02:44;16.35;;;11.70;;
30635;SDS011;17400;52.392;9.750;2023-06-22T03:05:13;12.30;;;11.00;;
30635;SDS011;17400;52.392;9.750;2023-06-22T03:07:45;13.43;;;11.60;;
30635;SDS011;17400;52.392;9.750;2023-06-22T03:10:14;13.32;;;11.93;;
30635;SDS011;17400;52.392;9.750;2023-06-22T03:12:42;13.05;;;11.50;;
30635;SDS011;17400;52.392;9.750;2023-06-22T03:15:12;11.98;;;10.65;;
30635;SDS011;17400;52.392;9.750;2023-06-22T03:17:40;14.45;;;12.27;;
30635;SDS011;17400;52.392;9.750;2023-06-22T03:20:10;13.02;;;10.45;;
30635;SDS011;17400;52.392;9.750;2023-06-22T03:22:39;12.80;;;10.50;;
30635;SDS011;17400;52.392;9.750;2023-06-22T03:25:08;12.10;;;10.80;;
30635;SDS011;17400;52.392;9.750;2023-06-22T03:27:40;12.20;;;10.93;;
30635;SDS011;17400;52.392;9.750;2023-06-22T03:30:09;15.75;;;11.02;;
30635;SDS011;17400;52.392;9.750;2023-06-22T03:32:38;14.00;;;9.80;;
30635;SDS011;17400;52.392;9.750;2023-06-22T03:35:06;15.05;;;11.20;;
30635;SDS011;17400;52.392;9.750;2023-06-22T03:37:35;12.55;;;10.73;;
30635;SDS011;17400;52.392;9.750;2023-06-22T03:40:03;12.88;;;10.73;;
30635;SDS011;17400;52.392;9.750;2023-06-22T03:42:33;14.43;;;11.40;;
30635;SDS011;17400;52.392;9.750;2023-06-22T03:47:48;12.88;;;11.45;;
30635;SDS011;17400;52.392;9.750;2023-06-22T03:50:16;13.82;;;11.52;;
30635;SDS011;17400;52.392;9.750;2023-06-22T03:52:46;12.70;;;10.25;;
30635;SDS011;17400;52.392;9.750;2023-06-22T03:55:15;15.50;;;11.38;;
30635;SDS011;17400;52.392;9.750;2023-06-22T03:57:43;12.88;;;11.02;;
30635;SDS011;17400;52.392;9.750;2023-06-22T04:00:11;12.23;;;10.73;;
30635;SDS011;17400;52.392;9.750;2023-06-22T04:02:41;14.88;;;10.95;;
30635;SDS011;17400;52.392;9.750;2023-06-22T04:05:10;13.02;;;10.98;;
30635;SDS011;17400;52.392;9.750;2023-06-22T04:07:38;13.57;;;10.38;;
30635;SDS011;17400;52.392;9.750;2023-06-22T04:10:06;12.98;;;10.45;;
30635;SDS011;17400;52.392;9.750;2023-06-22T04:12:38;12.27;;;10.98;;
30635;SDS011;17400;52.392;9.750;2023-06-22T04:15:06;13.52;;;11.10;;
30635;SDS011;17400;52.392;9.750;2023-06-22T04:17:34;14.00;;;11.07;;
30635;SDS011;17400;52.392;9.750;2023-06-22T04:20:04;12.40;;;10.63;;
30635;SDS011;17400;52.392;9.750;2023-06-22T04:22:33;15.98;;;10.48;;
30635;SDS011;17400;52.392;9.750;2023-06-22T04:25:00;11.98;;;10.73;;
30635;SDS011;17400;52.392;9.750;2023-06-22T04:27:28;13.93;;;10.27;;
30635;SDS011;17400;52.392;9.750;2023-06-22T04:29:56;13.90;;;10.40;;
30635;SDS011;17400;52.392;9.750;2023-06-22T04:32:26;13.40;;;11.20;;
30635;SDS011;17400;52.392;9.750;2023-06-22T04:34:54;13.48;;;10.05;;
30635;SDS011;17400;52.392;9.750;2023-06-22T04:37:24;11.50;;;9.88;;
30635;SDS011;17400;52.392;9.750;2023-06-22T04:39:51;12.50;;;9.15;;
30635;SDS011;17400;52.392;9.750;2023-06-22T04:42:19;10.80;;;9.23;;
30635;SDS011;17400;52.392;9.750;2023-06-22T04:44:47;16.75;;;9.73;;
30635;SDS011;17400;52.392;9.750;2023-06-22T04:47:15;12.48;;;10.43;;
30635;SDS011;17400;52.392;9.750;2023-06-22T04:49:43;13.45;;;10.05;;
30635;SDS011;17400;52.392;9.750;2023-06-22T04:52:11;12.23;;;10.35;;
30635;SDS011;17400;52.392;9.750;2023-06-22T04:54:49;10.73;;;9.63;;
30635;SDS011;17400;52.392;9.750;2023-06-22T04:57:22;12.68;;;9.18;;
30635;SDS011;17400;52.392;9.750;2023-06-22T04:59:59;12.13;;;8.73;;
30635;SDS011;17400;52.392;9.750;2023-06-22T05:02:38;12.60;;;9.00;;
30635;SDS011;17400;52.392;9.750;2023-06-22T05:05:07;12.18;;;9.32;;
30635;SDS011;17400;52.392;9.750;2023-06-22T05:07:41;11.38;;;8.75;;
30635;SDS011;17400;52.392;9.750;2023-06-22T05:10:11;9.73;;;8.60;;
30635;SDS011;17400;52.392;9.750;2023-06-22T05:12:39;13.43;;;9.90;;
30635;SDS011;17400;52.392;9.750;2023-06-22T05:15:08;11.15;;;9.10;;
30635;SDS011;17400;52.392;9.750;2023-06-22T05:17:37;10.95;;;9.20;;
30635;SDS011;17400;52.392;9.750;2023-06-22T05:20:10;13.20;;;8.82;;
30635;SDS011;17400;52.392;9.750;2023-06-22T05:22:38;12.95;;;9.00;;
30635;SDS011;17400;52.392;9.750;2023-06-22T05:25:08;10.65;;;9.07;;
30635;SDS011;17400;52.392;9.750;2023-06-22T05:27:39;11.65;;;8.80;;
30635;SDS011;17400;52.392;9.750;2023-06-22T05:30:07;13.88;;;9.15;;
30635;SDS011;17400;52.392;9.750;2023-06-22T05:32:36;13.43;;;9.15;;
30635;SDS011;17400;52.392;9.750;2023-06-22T05:35:04;9.68;;;8.13;;
30635;SDS011;17400;52.392;9.750;2023-06-22T05:37:33;11.52;;;8.75;;
30635;SDS011;17400;52.392;9.750;2023-06-22T05:40:01;14.35;;;10.00;;
30635;SDS011;17400;52.392;9.750;2023-06-22T05:42:29;10.88;;;8.35;;
30635;SDS011;17400;52.392;9.750;2023-06-22T05:44:59;12.32;;;8.98;;
30635;SDS011;17400;52.392;9.750;2023-06-22T05:47:26;10.88;;;8.18;;
30635;SDS011;17400;52.392;9.750;2023-06-22T05:49:54;10.20;;;7.70;;
30635;SDS011;17400;52.392;9.750;2023-06-22T05:52:22;9.98;;;7.97;;
30635;SDS011;17400;52.392;9.750;2023-06-22T05:54:50;8.80;;;7.22;;
30635;SDS011;17400;52.392;9.750;2023-06-22T05:57:18;9.15;;;7.53;;
30635;SDS011;17400;52.392;9.750;2023-06-22T05:59:48;8.48;;;7.38;;
30635;SDS011;17400;52.392;9.750;2023-06-22T06:02:17;10.05;;;7.65;;
30635;SDS011;17400;52.392;9.750;2023-06-22T06:04:46;10.20;;;8.30;;
30635;SDS011;17400;52.392;9.750;2023-06-22T06:07:13;10.93;;;8.77;;
30635;SDS011;17400;52.392;9.750;2023-06-22T06:09:41;10.43;;;7.90;;
30635;SDS011;17400;52.392;9.750;2023-06-22T06:12:09;12.70;;;8.63;;
30635;SDS011;17400;52.392;9.750;2023-06-22T06:14:37;10.90;;;8.15;;
30635;SDS011;17400;52.392;9.750;2023-06-22T06:17:05;10.40;;;7.93;;
30635;SDS011;17400;52.392;9.750;2023-06-22T06:19:35;9.73;;;7.28;;
30635;SDS011;17400;52.392;9.750;2023-06-22T06:22:03;7.90;;;6.85;;
30635;SDS011;17400;52.392;9.750;2023-06-22T06:24:31;8.18;;;6.63;;
30635;SDS011;17400;52.392;9.750;2023-06-22T06:26:59;8.55;;;7.03;;
30635;SDS011;17400;52.392;9.750;2023-06-22T06:29:31;11.43;;;7.65;;
30635;SDS011;17400;52.392;9.750;2023-06-22T06:31:59;9.48;;;7.78;;
30635;SDS011;17400;52.392;9.750;2023-06-22T06:34:27;7.90;;;6.63;;
30635;SDS011;17400;52.392;9.750;2023-06-22T06:36:56;8.45;;;6.53;;
30635;SDS011;17400;52.392;9.750;2023-06-22T06:39:26;7.88;;;5.97;;
30635;SDS011;17400;52.392;9.750;2023-06-22T06:41:54;8.38;;;6.63;;
30635;SDS011;17400;52.392;9.750;2023-06-22T06:44:22;8.65;;;6.10;;
30635;SDS011;17400;52.392;9.750;2023-06-22T06:46:50;8.18;;;5.80;;
30635;SDS011;17400;52.392;9.750;2023-06-22T06:49:18;6.55;;;5.82;;
30635;SDS011;17400;52.392;9.750;2023-06-22T06:51:46;8.93;;;5.78;;
30635;SDS011;17400;52.392;9.750;2023-06-22T06:54:15;8.60;;;6.20;;
30635;SDS011;17400;52.392;9.750;2023-06-22T06:56:43;7.28;;;5.93;;
30635;SDS011;17400;52.392;9.750;2023-06-22T06:59:15;9.60;;;6.80;;
30635;SDS011;17400;52.392;9.750;2023-06-22T07:01:43;11.05;;;6.03;;
30635;SDS011;17400;52.392;9.750;2023-06-22T07:04:11;7.55;;;5.30;;
30635;SDS011;17400;52.392;9.750;2023-06-22T07:06:39;7.25;;;5.82;;
30635;SDS011;17400;52.392;9.750;2023-06-22T07:09:07;10.80;;;5.93;;
30635;SDS011;17400;52.392;9.750;2023-06-22T07:11:36;10.48;;;7.20;;
30635;SDS011;17400;52.392;9.750;2023-06-22T07:14:04;8.02;;;6.70;;
30635;SDS011;17400;52.392;9.750;2023-06-22T07:16:32;14.73;;;6.50;;
30635;SDS011;17400;52.392;9.750;2023-06-22T07:19:00;9.20;;;6.05;;
30635;SDS011;17400;52.392;9.750;2023-06-22T07:21:28;7.30;;;5.75;;
30635;SDS011;17400;52.392;9.750;2023-06-22T07:23:56;8.93;;;6.63;;
30635;SDS011;17400;52.392;9.750;2023-06-22T07:26:24;7.13;;;5.35;;
30635;SDS011;17400;52.392;9.750;2023-06-22T07:28:54;9.10;;;5.65;;
30635;SDS011;17400;52.392;9.750;2023-06-22T07:31:23;10.30;;;6.32;;
30635;SDS011;17400;52.392;9.750;2023-06-22T07:33:51;12.75;;;7.07;;
30635;SDS011;17400;52.392;9.750;2023-06-22T07:36:19;10.90;;;6.47;;
30635;SDS011;17400;52.392;9.750;2023-06-22T07:38:47;11.18;;;6.70;;
30635;SDS011;17400;52.392;9.750;2023-06-22T07:41:15;7.80;;;6.45;;
30635;SDS011;17400;52.392;9.750;2023-06-22T07:43:43;11.68;;;7.25;;
30635;SDS011;17400;52.392;9.750;2023-06-22T07:46:12;7.78;;;6.40;;
30635;SDS011;17400;52.392;9.750;2023-06-22T07:48:40;8.57;;;7.30;;
30635;SDS011;17400;52.392;9.750;2023-06-22T07:51:08;8.93;;;6.18;;
30635;SDS011;17400;52.392;9.750;2023-06-22T07:53:39;10.32;;;7.13;;
30635;SDS011;17400;52.392;9.750;2023-06-22T07:56:09;8.68;;;7.55;;
30635;SDS011;17400;52.392;9.750;2023-06-22T07:58:37;9.18;;;7.07;;
30635;SDS011;17400;52.392;9.750;2023-06-22T08:01:06;9.48;;;6.25;;
30635;SDS011;17400;52.392;9.750;2023-06-22T08:03:37;10.68;;;6.35;;
30635;SDS011;17400;52.392;9.750;2023-06-22T08:06:07;10.10;;;6.80;;
30635;SDS011;17400;52.392;9.750;2023-06-22T08:08:35;9.98;;;6.65;;
30635;SDS011;17400;52.392;9.750;2023-06-22T08:11:03;9.50;;;6.22;;
30635;SDS011;17400;52.392;9.750;2023-06-22T08:13:32;8.85;;;5.65;;
30635;SDS011;17400;52.392;9.750;2023-06-22T08:16:00;7.78;;;6.47;;
30635;SDS011;17400;52.392;9.750;2023-06-22T08:18:28;8.32;;;5.63;;
30635;SDS011;17400;52.392;9.750;2023-06-22T08:20:57;8.85;;;5.40;;
30635;SDS011;17400;52.392;9.750;2023-06-22T08:23:25;7.28;;;5.40;;
30635;SDS011;17400;52.392;9.750;2023-06-22T08:25:55;7.13;;;6.10;;
30635;SDS011;17400;52.392;9.750;2023-06-22T08:28:23;11.18;;;6.40;;
30635;SDS011;17400;52.392;9.750;2023-06-22T08:30:51;8.43;;;5.55;;
30635;SDS011;17400;52.392;9.750;2023-06-22T08:33:19;8.10;;;5.50;;
30635;SDS011;17400;52.392;9.750;2023-06-22T08:35:54;8.88;;;6.75;;
30635;SDS011;17400;52.392;9.750;2023-06-22T08:38:23;9.32;;;6.57;;
30635;SDS011;17400;52.392;9.750;2023-06-22T08:40:51;9.23;;;6.53;;
30635;SDS011;17400;52.392;9.750;2023-06-22T08:43:19;13.52;;;8.80;;
30635;SDS011;17400;52.392;9.750;2023-06-22T08:45:47;9.02;;;7.03;;
30635;SDS011;17400;52.392;9.750;2023-06-22T08:48:15;10.48;;;8.55;;
30635;SDS011;17400;52.392;9.750;2023-06-22T08:50:43;11.18;;;7.90;;
30635;SDS011;17400;52.392;9.750;2023-06-22T08:53:11;10.60;;;7.38;;
30635;SDS011;17400;52.392;9.750;2023-06-22T08:55:40;12.75;;;7.60;;
30635;SDS011;17400;52.392;9.750;2023-06-22T08:58:08;8.07;;;6.80;;
30635;SDS011;17400;52.392;9.750;2023-06-22T09:00:36;11.13;;;7.78;;
30635;SDS011;17400;52.392;9.750;2023-06-22T09:03:04;10.05;;;8.10;;
30635;SDS011;17400;52.392;9.750;2023-06-22T09:05:32;11.85;;;8.73;;
30635;SDS011;17400;52.392;9.750;2023-06-22T09:08:00;10.85;;;8.57;;
30635;SDS011;17400;52.392;9.750;2023-06-22T09:10:28;10.15;;;7.28;;
30635;SDS011;17400;52.392;9.750;2023-06-22T09:12:58;9.13;;;7.53;;
30635;SDS011;17400;52.392;9.750;2023-06-22T09:15:25;8.90;;;6.15;;
30635;SDS011;17400;52.392;9.750;2023-06-22T09:17:53;8.50;;;7.03;;
30635;SDS011;17400;52.392;9.750;2023-06-22T09:20:23;12.23;;;8.35;;
30635;SDS011;17400;52.392;9.750;2023-06-22T09:22:54;14.75;;;8.65;;
30635;SDS011;17400;52.392;9.750;2023-06-22T09:25:21;13.43;;;9.15;;
30635;SDS011;17400;52.392;9.750;2023-06-22T09:27:49;11.57;;;7.88;;
30635;SDS011;17400;52.392;9.750;2023-06-22T09:30:18;13.20;;;9.10;;
30635;SDS011;17400;52.392;9.750;2023-06-22T09:32:46;11.93;;;8.73;;
30635;SDS011;17400;52.392;9.750;2023-06-22T09:35:14;16.52;;;10.48;;
30635;SDS011;17400;52.392;9.750;2023-06-22T09:37:42;13.85;;;9.02;;
30635;SDS011;17400;52.392;9.750;2023-06-22T09:40:11;10.35;;;8.77;;
30635;SDS011;17400;52.392;9.750;2023-06-22T09:42:42;15.60;;;8.85;;
30635;SDS011;17400;52.392;9.750;2023-06-22T09:45:10;16.70;;;10.65;;
30635;SDS011;17400;52.392;9.750;2023-06-22T09:47:39;12.18;;;9.65;;
30635;SDS011;17400;52.392;9.750;2023-06-22T09:50:08;11.82;;;8.95;;
30635;SDS011;17400;52.392;9.750;2023-06-22T09:52:36;10.73;;;8.45;;
30635;SDS011;17400;52.392;9.750;2023-06-22T09:55:07;10.43;;;8.38;;
30635;SDS011;17400;52.392;9.750;2023-06-22T09:57:35;11.80;;;9.68;;
30635;SDS011;17400;52.392;9.750;2023-06-22T10:00:04;13.20;;;10.43;;
30635;SDS011;17400;52.392;9.750;2023-06-22T10:02:35;13.65;;;8.88;;
30635;SDS011;17400;52.392;9.750;2023-06-22T10:05:04;11.20;;;8.65;;
30635;SDS011;17400;52.392;9.750;2023-06-22T10:07:34;13.10;;;10.02;;
30635;SDS011;17400;52.392;9.750;2023-06-22T10:10:07;9.90;;;8.10;;
30635;SDS011;17400;52.392;9.750;2023-06-22T10:12:35;17.35;;;10.75;;
30635;SDS011;17400;52.392;9.750;2023-06-22T10:15:03;18.20;;;9.30;;
30635;SDS011;17400;52.392;9.750;2023-06-22T10:17:32;19.00;;;9.65;;
30635;SDS011;17400;52.392;9.750;2023-06-22T10:20:00;14.98;;;9.38;;
30635;SDS011;17400;52.392;9.750;2023-06-22T10:22:34;17.27;;;9.52;;
30635;SDS011;17400;52.392;9.750;2023-06-22T10:25:02;15.85;;;10.52;;
30635;SDS011;17400;52.392;9.750;2023-06-22T10:27:33;12.10;;;10.18;;
30635;SDS011;17400;52.392;9.750;2023-06-22T10:30:01;15.02;;;10.18;;
30635;SDS011;17400;52.392;9.750;2023-06-22T10:32:31;14.63;;;10.60;;
30635;SDS011;17400;52.392;9.750;2023-06-22T10:34:59;12.60;;;9.55;;
30635;SDS011;17400;52.392;9.750;2023-06-22T10:37:27;14.13;;;10.95;;
30635;SDS011;17400;52.392;9.750;2023-06-22T10:39:56;17.27;;;12.45;;
30635;SDS011;17400;52.392;9.750;2023-06-22T10:42:24;16.75;;;11.05;;
30635;SDS011;17400;52.392;9.750;2023-06-22T10:44:52;14.50;;;9.85;;
30635;SDS011;17400;52.392;9.750;2023-06-22T10:47:20;14.30;;;10.13;;
30635;SDS011;17400;52.392;9.750;2023-06-22T10:49:48;14.60;;;10.45;;
30635;SDS011;17400;52.392;9.750;2023-06-22T10:52:16;15.98;;;9.93;;
30635;SDS011;17400;52.392;9.750;2023-06-22T10:54:44;13.15;;;8.68;;
30635;SDS011;17400;52.392;9.750;2023-06-22T10:57:13;14.57;;;11.10;;
30635;SDS011;17400;52.392;9.750;2023-06-22T10:59:41;12.02;;;8.63;;
30635;SDS011;17400;52.392;9.750;2023-06-22T11:02:09;13.40;;;9.13;;
30635;SDS011;17400;52.392;9.750;2023-06-22T11:04:37;13.70;;;10.70;;
30635;SDS011;17400;52.392;9.750;2023-06-22T11:07:06;13.30;;;9.27;;
30635;SDS011;17400;52.392;9.750;2023-06-22T11:09:35;14.73;;;11.38;;
30635;SDS011;17400;52.392;9.750;2023-06-22T11:12:06;16.73;;;11.63;;
30635;SDS011;17400;52.392;9.750;2023-06-22T11:14:37;15.50;;;11.18;;
30635;SDS011;17400;52.392;9.750;2023-06-22T11:17:06;14.82;;;11.23;;
30635;SDS011;17400;52.392;9.750;2023-06-22T11:19:34;15.00;;;12.18;;
30635;SDS011;17400;52.392;9.750;2023-06-22T11:22:03;14.55;;;10.15;;
30635;SDS011;17400;52.392;9.750;2023-06-22T11:24:31;14.50;;;10.55;;
30635;SDS011;17400;52.392;9.750;2023-06-22T11:26:59;11.80;;;9.73;;
30635;SDS011;17400;52.392;9.750;2023-06-22T11:29:27;13.57;;;10.20;;
30635;SDS011;17400;52.392;9.750;2023-06-22T11:32:06;13.05;;;9.90;;
30635;SDS011;17400;52.392;9.750;2023-06-22T11:34:38;13.52;;;9.07;;
30635;SDS011;17400;52.392;9.750;2023-06-22T11:37:06;14.90;;;10.20;;
30635;SDS011;17400;52.392;9.750;2023-06-22T11:39:34;13.02;;;11.48;;
30635;SDS011;17400;52.392;9.750;2023-06-22T11:42:13;12.60;;;10.27;;
30635;SDS011;17400;52.392;9.750;2023-06-22T11:44:41;14.25;;;11.82;;
30635;SDS011;17400;52.392;9.750;2023-06-22T11:47:11;14.15;;;11.45;;
30635;SDS011;17400;52.392;9.750;2023-06-22T11:49:39;14.65;;;11.68;;
30635;SDS011;17400;52.392;9.750;2023-06-22T11:52:07;14.57;;;11.20;;
30635;SDS011;17400;52.392;9.750;2023-06-22T11:54:36;13.93;;;10.40;;
30635;SDS011;17400;52.392;9.750;2023-06-22T11:57:04;12.85;;;9.88;;
30635;SDS011;17400;52.392;9.750;2023-06-22T11:59:31;15.25;;;9.68;;
30635;SDS011;17400;52.392;9.750;2023-06-22T12:01:59;14.57;;;11.45;;
30635;SDS011;17400;52.392;9.750;2023-06-22T12:04:30;13.50;;;11.15;;
30635;SDS011;17400;52.392;9.750;2023-06-22T12:06:59;15.63;;;12.38;;
30635;SDS011;17400;52.392;9.750;2023-06-22T12:09:27;12.30;;;10.40;;
30635;SDS011;17400;52.392;9.750;2023-06-22T12:11:55;13.50;;;11.40;;
30635;SDS011;17400;52.392;9.750;2023-06-22T12:14:23;14.90;;;10.13;;
30635;SDS011;17400;52.392;9.750;2023-06-22T12:16:52;12.05;;;9.52;;
30635;SDS011;17400;52.392;9.750;2023-06-22T12:19:20;14.30;;;10.63;;
30635;SDS011;17400;52.392;9.750;2023-06-22T12:21:50;13.43;;;10.07;;
30635;SDS011;17400;52.392;9.750;2023-06-22T12:24:17;10.65;;;8.93;;
30635;SDS011;17400;52.392;9.750;2023-06-22T12:26:45;14.88;;;11.63;;
30635;SDS011;17400;52.392;9.750;2023-06-22T12:29:13;14.05;;;9.43;;
30635;SDS011;17400;52.392;9.750;2023-06-22T12:31:41;11.00;;;9.18;;
30635;SDS011;17400;52.392;9.750;2023-06-22T12:34:09;11.02;;;8.50;;
30635;SDS011;17400;52.392;9.750;2023-06-22T12:36:38;11.75;;;10.07;;
30635;SDS011;17400;52.392;9.750;2023-06-22T12:39:09;12.02;;;9.10;;
30635;SDS011;17400;52.392;9.750;2023-06-22T12:41:37;15.77;;;11.43;;
30635;SDS011;17400;52.392;9.750;2023-06-22T12:44:05;15.32;;;10.40;;
30635;SDS011;17400;52.392;9.750;2023-06-22T12:46:33;13.00;;;10.10;;
30635;SDS011;17400;52.392;9.750;2023-06-22T12:49:04;13.88;;;9.52;;
30635;SDS011;17400;52.392;9.750;2023-06-22T12:51:39;13.80;;;11.00;;
30635;SDS011;17400;52.392;9.750;2023-06-22T12:54:10;13.80;;;10.55;;
30635;SDS011;17400;52.392;9.750;2023-06-22T12:56:38;14.35;;;11.77;;
30635;SDS011;17400;52.392;9.750;2023-06-22T12:59:07;12.23;;;10.93;;
30635;SDS011;17400;52.392;9.750;2023-06-22T13:01:35;13.85;;;11.70;;
30635;SDS011;17400;52.392;9.750;2023-06-22T13:04:05;11.25;;;9.80;;
30635;SDS011;17400;52.392;9.750;2023-06-22T13:06:33;18.15;;;11.57;;
30635;SDS011;17400;52.392;9.750;2023-06-22T13:09:01;18.65;;;9.70;;
30635;SDS011;17400;52.392;9.750;2023-06-22T13:11:35;12.85;;;11.00;;
30635;SDS011;17400;52.392;9.750;2023-06-22T13:14:03;13.50;;;10.52;;
30635;SDS011;17400;52.392;9.750;2023-06-22T13:16:32;12.07;;;9.48;;
30635;SDS011;17400;52.392;9.750;2023-06-22T13:19:01;12.82;;;10.05;;
30635;SDS011;17400;52.392;9.750;2023-06-22T13:21:29;14.35;;;11.45;;
30635;SDS011;17400;52.392;9.750;2023-06-22T13:24:00;15.10;;;11.60;;
30635;SDS011;17400;52.392;9.750;2023-06-22T13:26:28;12.55;;;10.85;;
30635;SDS011;17400;52.392;9.750;2023-06-22T13:28:58;18.10;;;12.15;;
30635;SDS011;17400;52.392;9.750;2023-06-22T13:31:26;15.02;;;12.23;;
30635;SDS011;17400;52.392;9.750;2023-06-22T13:33:54;12.68;;;10.80;;
30635;SDS011;17400;52.392;9.750;2023-06-22T13:36:22;13.15;;;11.15;;
30635;SDS011;17400;52.392;9.750;2023-06-22T13:38:50;13.30;;;10.57;;
30635;SDS011;17400;52.392;9.750;2023-06-22T13:41:18;15.85;;;11.10;;
30635;SDS011;17400;52.392;9.750;2023-06-22T13:43:48;13.98;;;10.65;;
30635;SDS011;17400;52.392;9.750;2023-06-22T13:46:17;12.73;;;9.77;;
30635;SDS011;17400;52.392;9.750;2023-06-22T13:48:45;12.88;;;11.02;;
30635;SDS011;17400;52.392;9.750;2023-06-22T13:51:13;12.27;;;10.02;;
30635;SDS011;17400;52.392;9.750;2023-06-22T13:53:41;13.68;;;11.15;;
30635;SDS011;17400;52.392;9.750;2023-06-22T13:56:11;14.27;;;10.68;;
30635;SDS011;17400;52.392;9.750;2023-06-22T13:58:44;14.85;;;11.35;;
30635;SDS011;17400;52.392;9.750;2023-06-22T14:01:12;13.73;;;11.23;;
30635;SDS011;17400;52.392;9.750;2023-06-22T14:03:44;12.95;;;10.48;;
30635;SDS011;17400;52.392;9.750;2023-06-22T14:06:13;15.23;;;11.93;;
30635;SDS011;17400;52.392;9.750;2023-06-22T14:08:41;13.68;;;11.68;;
30635;SDS011;17400;52.392;9.750;2023-06-22T14:11:09;13.25;;;11.90;;
30635;SDS011;17400;52.392;9.750;2023-06-22T14:13:37;14.95;;;12.25;;
30635;SDS011;17400;52.392;9.750;2023-06-22T14:16:05;16.58;;;13.32;;
30635;SDS011;17400;52.392;9.750;2023-06-22T14:18:33;13.93;;;12.27;;
30635;SDS011;17400;52.392;9.750;2023-06-22T14:21:02;18.45;;;15.45;;
30635;SDS011;17400;52.392;9.750;2023-06-22T14:23:30;14.50;;;11.82;;
30635;SDS011;17400;52.392;9.750;2023-06-22T14:25:58;15.43;;;12.32;;
30635;SDS011;17400;52.392;9.750;2023-06-22T14:28:26;14.18;;;12.07;;
30635;SDS011;17400;52.392;9.750;2023-06-22T14:30:54;15.27;;;12.60;;
30635;SDS011;17400;52.392;9.750;2023-06-22T14:33:23;12.77;;;11.35;;
30635;SDS011;17400;52.392;9.750;2023-06-22T14:35:53;15.77;;;12.60;;
30635;SDS011;17400;52.392;9.750;2023-06-22T14:38:23;13.38;;;11.98;;
30635;SDS011;17400;52.392;9.750;2023-06-22T14:40:52;15.23;;;11.68;;